Rosa Maersk — OVST2 — position and weather

sailwx.info

Track history (hours):
 
Tides and Currents Weather Stations Pressure Air Temp Water Temp Dewpoint Dewpoint Depression Visibility Wind Speed Wind Dir Waves Ship Positions

Rosa Maersk

Last reported at 2015-Jul-29 07:33 UTC. Time now 2015-Jul-31 23:28 UTC.
Position N 37°22' E 024°14'.

Length 172 m; draft 11.8 m.

Type: Ship. MMSI: 220288000.

Date/timePositionNaut miles runAvg speedWind from/ knotsBaromVisibWave heightAir tempDewpointWater temp
2015-Jul-29 07:33N 37°22' E 024°14'1211.2
2015-Jul-29 06:30N 37°10' E 024°09'2312.0
2015-Jul-29 04:34N 36°48' E 024°01'1211.8
2015-Jul-29 03:33N 36°39' E 023°51'1211.7
2015-Jul-29 02:34N 36°31' E 023°41'1211.6
2015-Jul-29 01:33N 36°22' E 023°31'1111.1
2015-Jul-29 00:33N 36°14' E 023°21'1211.3
2015-Jul-28 23:31N 36°05' E 023°12'35011.9
2015-Jul-27 18:12N 36°17' E 015°59'812.6
2015-Jul-27 17:32N 36°17' E 015°49'1212.5
2015-Jul-27 16:33N 36°18' E 015°34'1212.2
2015-Jul-27 15:33N 36°18' E 015°18'1212.2
2015-Jul-27 14:31N 36°19' E 015°03'1412.3
2015-Jul-27 13:24N 36°20' E 014°46'1012.0
2015-Jul-27 12:33N 36°21' E 014°33'1212.2
2015-Jul-27 11:34N 36°24' E 014°19'1212.2
2015-Jul-27 10:34N 36°28' E 014°04'1212.4
2015-Jul-27 09:33N 36°31' E 013°50'1312.5
2015-Jul-27 08:33N 36°35' E 013°35'1312.6
2015-Jul-27 07:33N 36°40' E 013°20'1212.6
2015-Jul-27 06:33N 36°43' E 013°05'1312.7
2015-Jul-27 05:33N 36°47' E 012°50'1212.4
2015-Jul-27 04:33N 36°51' E 012°35'6512.5
2015-Jul-26 23:22N 37°17' E 011°21'5212.8
2015-Jul-26 19:18N 37°42' E 010°23'39111.9
2015-Jul-25 10:30N 37°11' E 002°12'1511.5
2015-Jul-25 09:12N 37°07' E 001°54'12912.1
2015-Jul-24 22:33N 36°35' W 000°42'8311.6
2015-Jul-24 15:27N 36°14' W 002°21'1411.9
2015-Jul-24 14:18N 36°13' W 002°38'911.7
2015-Jul-24 13:33N 36°12' W 002°48'17912.8
2015-Jul-23 23:33N 35°56' W 006°29'1612.6
2015-Jul-23 22:17N 35°60' W 006°48'912.5
2015-Jul-23 21:33N 36°02' W 006°59'1212.3
2015-Jul-23 20:33N 36°05' W 007°14'1212.5
2015-Jul-23 19:33N 36°08' W 007°29'1212.3
2015-Jul-23 18:33N 36°11' W 007°44'1212.2
2015-Jul-23 17:33N 36°14' W 007°59'1212.1
2015-Jul-23 16:33N 36°17' W 008°13'1212.1
2015-Jul-23 15:33N 36°20' W 008°28'1212.1
2015-Jul-23 14:33N 36°22' W 008°43'1212.4
2015-Jul-23 13:33N 36°26' W 008°57'1212.3
2015-Jul-23 12:33N 36°29' W 009°12'2411.5
2015-Jul-23 10:31N 36°43' W 009°36'1111.5
2015-Jul-23 09:33N 36°53' W 009°40'2411.8
2015-Jul-23 07:33N 37°16' W 009°47'1211.9
2015-Jul-23 06:32N 37°28' W 009°50'1211.9
2015-Jul-23 05:33N 37°39' W 009°54'1211.7
2015-Jul-23 04:33N 37°51' W 009°57'1211.4
2015-Jul-23 03:33N 38°02' W 010°00'1211.6
2015-Jul-23 02:33N 38°13' W 010°03'1311.8
2015-Jul-23 01:29N 38°25' W 010°07'1311.6
2015-Jul-23 00:25N 38°38' W 010°11'2212.0
2015-Jul-22 22:33N 38°60' W 010°12'1712.2
2015-Jul-22 21:12N 39°16' W 010°12'1211.9
2015-Jul-22 20:12N 39°28' W 010°12'  
2015-Jul-20 12:31N 50°13' W 006°36'5212.0
2015-Jul-20 08:10N 50°57' W 005°53'710.5
2015-Jul-20 07:33N 51°03' W 005°48'1110.8
2015-Jul-20 06:29N 51°12' W 005°38'  
Track history (hours):
 
Tides and Currents Weather Stations Pressure Air Temp Water Temp Dewpoint Dewpoint Depression Visibility Wind Speed Wind Dir Waves Ship Positions

Rosa Maersk

Last reported at 2015-Jul-29 07:33 UTC. Time now 2015-Jul-31 23:28 UTC.
Position N 37°22' E 024°14'.

Length 172 m; draft 11.8 m.

Type: Ship. MMSI: 220288000.

Date/timePositionNaut miles runAvg speedWind from/ knotsBaromVisibWave heightAir tempDewpointWater temp
2015-Jul-29 07:33N 37°22' E 024°14'1211.2
2015-Jul-29 06:30N 37°10' E 024°09'2312.0
2015-Jul-29 04:34N 36°48' E 024°01'1211.8
2015-Jul-29 03:33N 36°39' E 023°51'1211.7
2015-Jul-29 02:34N 36°31' E 023°41'1211.6
2015-Jul-29 01:33N 36°22' E 023°31'1111.1
2015-Jul-29 00:33N 36°14' E 023°21'1211.3
2015-Jul-28 23:31N 36°05' E 023°12'35011.9
2015-Jul-27 18:12N 36°17' E 015°59'812.6
2015-Jul-27 17:32N 36°17' E 015°49'1212.5
2015-Jul-27 16:33N 36°18' E 015°34'1212.2
2015-Jul-27 15:33N 36°18' E 015°18'1212.2
2015-Jul-27 14:31N 36°19' E 015°03'1412.3
2015-Jul-27 13:24N 36°20' E 014°46'1012.0
2015-Jul-27 12:33N 36°21' E 014°33'1212.2
2015-Jul-27 11:34N 36°24' E 014°19'1212.2
2015-Jul-27 10:34N 36°28' E 014°04'1212.4
2015-Jul-27 09:33N 36°31' E 013°50'1312.5
2015-Jul-27 08:33N 36°35' E 013°35'1312.6
2015-Jul-27 07:33N 36°40' E 013°20'1212.6
2015-Jul-27 06:33N 36°43' E 013°05'1312.7
2015-Jul-27 05:33N 36°47' E 012°50'1212.4
2015-Jul-27 04:33N 36°51' E 012°35'6512.5
2015-Jul-26 23:22N 37°17' E 011°21'5212.8
2015-Jul-26 19:18N 37°42' E 010°23'39111.9
2015-Jul-25 10:30N 37°11' E 002°12'1511.5
2015-Jul-25 09:12N 37°07' E 001°54'12912.1
2015-Jul-24 22:33N 36°35' W 000°42'8311.6
2015-Jul-24 15:27N 36°14' W 002°21'1411.9
2015-Jul-24 14:18N 36°13' W 002°38'911.7
2015-Jul-24 13:33N 36°12' W 002°48'17912.8
2015-Jul-23 23:33N 35°56' W 006°29'1612.6
2015-Jul-23 22:17N 35°60' W 006°48'912.5
2015-Jul-23 21:33N 36°02' W 006°59'1212.3
2015-Jul-23 20:33N 36°05' W 007°14'1212.5
2015-Jul-23 19:33N 36°08' W 007°29'1212.3
2015-Jul-23 18:33N 36°11' W 007°44'1212.2
2015-Jul-23 17:33N 36°14' W 007°59'1212.1
2015-Jul-23 16:33N 36°17' W 008°13'1212.1
2015-Jul-23 15:33N 36°20' W 008°28'1212.1
2015-Jul-23 14:33N 36°22' W 008°43'1212.4
2015-Jul-23 13:33N 36°26' W 008°57'1212.3
2015-Jul-23 12:33N 36°29' W 009°12'2411.5
2015-Jul-23 10:31N 36°43' W 009°36'1111.5
2015-Jul-23 09:33N 36°53' W 009°40'2411.8
2015-Jul-23 07:33N 37°16' W 009°47'1211.9
2015-Jul-23 06:32N 37°28' W 009°50'1211.9
2015-Jul-23 05:33N 37°39' W 009°54'1211.7
2015-Jul-23 04:33N 37°51' W 009°57'1211.4
2015-Jul-23 03:33N 38°02' W 010°00'1211.6
2015-Jul-23 02:33N 38°13' W 010°03'1311.8
2015-Jul-23 01:29N 38°25' W 010°07'1311.6
2015-Jul-23 00:25N 38°38' W 010°11'2212.0
2015-Jul-22 22:33N 38°60' W 010°12'1712.2
2015-Jul-22 21:12N 39°16' W 010°12'1211.9
2015-Jul-22 20:12N 39°28' W 010°12'  
2015-Jul-20 12:31N 50°13' W 006°36'5212.0
2015-Jul-20 08:10N 50°57' W 005°53'710.5
2015-Jul-20 07:33N 51°03' W 005°48'1110.8
2015-Jul-20 06:29N 51°12' W 005°38'  

Dump ship's entire track history